sensor_id;sensor_type;location;lat;lon;timestamp;pressure;altitude;pressure_sealevel;temperature
19282;BMP180;9774;52.034;5.342;2023-07-29T00:00:18;100573.00;;;23.90
19282;BMP180;9774;52.034;5.342;2023-07-29T00:02:45;100567.00;;;23.90
19282;BMP180;9774;52.034;5.342;2023-07-29T00:05:13;100567.00;;;23.90
19282;BMP180;9774;52.034;5.342;2023-07-29T00:07:40;100559.00;;;23.80
19282;BMP180;9774;52.034;5.342;2023-07-29T00:10:08;100554.00;;;23.80
19282;BMP180;9774;52.034;5.342;2023-07-29T00:12:35;100552.00;;;23.80
19282;BMP180;9774;52.034;5.342;2023-07-29T00:15:04;100547.00;;;23.80
19282;BMP180;9774;52.034;5.342;2023-07-29T00:17:32;100548.00;;;23.80
19282;BMP180;9774;52.034;5.342;2023-07-29T00:19:59;100545.00;;;23.80
19282;BMP180;9774;52.034;5.342;2023-07-29T00:22:26;100534.00;;;23.80
19282;BMP180;9774;52.034;5.342;2023-07-29T00:24:54;100525.00;;;23.80
19282;BMP180;9774;52.034;5.342;2023-07-29T00:27:23;100517.00;;;23.70
19282;BMP180;9774;52.034;5.342;2023-07-29T00:29:50;100529.00;;;23.70
19282;BMP180;9774;52.034;5.342;2023-07-29T00:32:19;100540.00;;;23.70
19282;BMP180;9774;52.034;5.342;2023-07-29T00:34:46;100550.00;;;23.70
19282;BMP180;9774;52.034;5.342;2023-07-29T00:37:13;100546.00;;;23.70
19282;BMP180;9774;52.034;5.342;2023-07-29T00:39:40;100555.00;;;23.60
19282;BMP180;9774;52.034;5.342;2023-07-29T00:42:08;100551.00;;;23.70
19282;BMP180;9774;52.034;5.342;2023-07-29T00:44:36;100551.00;;;23.60
19282;BMP180;9774;52.034;5.342;2023-07-29T00:47:03;100551.00;;;23.60
19282;BMP180;9774;52.034;5.342;2023-07-29T00:49:33;100548.00;;;23.60
19282;BMP180;9774;52.034;5.342;2023-07-29T00:52:00;100535.00;;;23.60
19282;BMP180;9774;52.034;5.342;2023-07-29T00:54:27;100522.00;;;23.60
19282;BMP180;9774;52.034;5.342;2023-07-29T00:56:55;100523.00;;;23.60
19282;BMP180;9774;52.034;5.342;2023-07-29T00:59:23;100518.00;;;23.60
19282;BMP180;9774;52.034;5.342;2023-07-29T01:01:50;100516.00;;;23.60
19282;BMP180;9774;52.034;5.342;2023-07-29T01:04:17;100524.00;;;23.60
19282;BMP180;9774;52.034;5.342;2023-07-29T01:06:53;100526.00;;;23.50
19282;BMP180;9774;52.034;5.342;2023-07-29T01:09:26;100527.00;;;23.60
19282;BMP180;9774;52.034;5.342;2023-07-29T01:12:05;100526.00;;;23.50
19282;BMP180;9774;52.034;5.342;2023-07-29T01:14:38;100526.00;;;23.50
19282;BMP180;9774;52.034;5.342;2023-07-29T01:17:15;100531.00;;;23.50
19282;BMP180;9774;52.034;5.342;2023-07-29T01:19:54;100524.00;;;23.50
19282;BMP180;9774;52.034;5.342;2023-07-29T01:22:24;100522.00;;;23.50
19282;BMP180;9774;52.034;5.342;2023-07-29T01:24:53;100521.00;;;23.50
19282;BMP180;9774;52.034;5.342;2023-07-29T01:27:20;100527.00;;;23.50
19282;BMP180;9774;52.034;5.342;2023-07-29T01:29:48;100531.00;;;23.50
19282;BMP180;9774;52.034;5.342;2023-07-29T01:32:19;100529.00;;;23.50
19282;BMP180;9774;52.034;5.342;2023-07-29T01:34:51;100524.00;;;23.50
19282;BMP180;9774;52.034;5.342;2023-07-29T01:37:32;100522.00;;;23.40
19282;BMP180;9774;52.034;5.342;2023-07-29T01:40:01;100522.00;;;23.50
19282;BMP180;9774;52.034;5.342;2023-07-29T01:42:29;100516.00;;;23.50
19282;BMP180;9774;52.034;5.342;2023-07-29T01:44:56;100516.00;;;23.40
19282;BMP180;9774;52.034;5.342;2023-07-29T01:47:24;100516.00;;;23.40
19282;BMP180;9774;52.034;5.342;2023-07-29T01:49:51;100516.00;;;23.40
19282;BMP180;9774;52.034;5.342;2023-07-29T01:52:19;100509.00;;;23.40
19282;BMP180;9774;52.034;5.342;2023-07-29T01:54:46;100506.00;;;23.40
19282;BMP180;9774;52.034;5.342;2023-07-29T01:57:14;100504.00;;;23.40
19282;BMP180;9774;52.034;5.342;2023-07-29T01:59:42;100504.00;;;23.40
19282;BMP180;9774;52.034;5.342;2023-07-29T02:02:09;100504.00;;;23.40
19282;BMP180;9774;52.034;5.342;2023-07-29T02:04:36;100506.00;;;23.40
19282;BMP180;9774;52.034;5.342;2023-07-29T02:07:04;100506.00;;;23.40
19282;BMP180;9774;52.034;5.342;2023-07-29T02:09:31;100508.00;;;23.40
19282;BMP180;9774;52.034;5.342;2023-07-29T02:11:59;100495.00;;;23.40
19282;BMP180;9774;52.034;5.342;2023-07-29T02:14:27;100499.00;;;23.40
19282;BMP180;9774;52.034;5.342;2023-07-29T02:16:54;100507.00;;;23.40
19282;BMP180;9774;52.034;5.342;2023-07-29T02:19:22;100499.00;;;23.40
19282;BMP180;9774;52.034;5.342;2023-07-29T02:21:49;100499.00;;;23.40
19282;BMP180;9774;52.034;5.342;2023-07-29T02:24:16;100494.00;;;23.40
19282;BMP180;9774;52.034;5.342;2023-07-29T02:26:43;100490.00;;;23.30
19282;BMP180;9774;52.034;5.342;2023-07-29T02:29:11;100497.00;;;23.30
19282;BMP180;9774;52.034;5.342;2023-07-29T02:31:39;100505.00;;;23.30
19282;BMP180;9774;52.034;5.342;2023-07-29T02:34:06;100498.00;;;23.30
19282;BMP180;9774;52.034;5.342;2023-07-29T02:36:34;100488.00;;;23.30
19282;BMP180;9774;52.034;5.342;2023-07-29T02:39:01;100488.00;;;23.30
19282;BMP180;9774;52.034;5.342;2023-07-29T02:41:28;100486.00;;;23.30
19282;BMP180;9774;52.034;5.342;2023-07-29T02:43:55;100486.00;;;23.30
19282;BMP180;9774;52.034;5.342;2023-07-29T02:46:23;100487.00;;;23.30
19282;BMP180;9774;52.034;5.342;2023-07-29T02:48:51;100477.00;;;23.30
19282;BMP180;9774;52.034;5.342;2023-07-29T02:51:19;100477.00;;;23.30
19282;BMP180;9774;52.034;5.342;2023-07-29T02:53:46;100485.00;;;23.30
19282;BMP180;9774;52.034;5.342;2023-07-29T02:56:13;100480.00;;;23.30
19282;BMP180;9774;52.034;5.342;2023-07-29T02:58:40;100486.00;;;23.30
19282;BMP180;9774;52.034;5.342;2023-07-29T03:01:08;100489.00;;;23.30
19282;BMP180;9774;52.034;5.342;2023-07-29T03:03:35;100472.00;;;23.30
19282;BMP180;9774;52.034;5.342;2023-07-29T03:06:05;100474.00;;;23.30
19282;BMP180;9774;52.034;5.342;2023-07-29T03:08:33;100471.00;;;23.30
19282;BMP180;9774;52.034;5.342;2023-07-29T03:11:05;100467.00;;;23.20
19282;BMP180;9774;52.034;5.342;2023-07-29T03:13:33;100469.00;;;23.30
19282;BMP180;9774;52.034;5.342;2023-07-29T03:16:05;100465.00;;;23.20
19282;BMP180;9774;52.034;5.342;2023-07-29T03:18:33;100468.00;;;23.30
19282;BMP180;9774;52.034;5.342;2023-07-29T03:21:00;100475.00;;;23.20
19282;BMP180;9774;52.034;5.342;2023-07-29T03:23:30;100472.00;;;23.20
19282;BMP180;9774;52.034;5.342;2023-07-29T03:25:58;100475.00;;;23.30
19282;BMP180;9774;52.034;5.342;2023-07-29T03:28:27;100472.00;;;23.30
19282;BMP180;9774;52.034;5.342;2023-07-29T03:30:54;100477.00;;;23.30
19282;BMP180;9774;52.034;5.342;2023-07-29T03:33:22;100475.00;;;23.20
19282;BMP180;9774;52.034;5.342;2023-07-29T03:35:49;100471.00;;;23.20
19282;BMP180;9774;52.034;5.342;2023-07-29T03:38:17;100469.00;;;23.20
19282;BMP180;9774;52.034;5.342;2023-07-29T03:40:45;100472.00;;;23.20
19282;BMP180;9774;52.034;5.342;2023-07-29T03:43:13;100473.00;;;23.20
19282;BMP180;9774;52.034;5.342;2023-07-29T03:45:41;100481.00;;;23.20
19282;BMP180;9774;52.034;5.342;2023-07-29T03:48:08;100477.00;;;23.20
19282;BMP180;9774;52.034;5.342;2023-07-29T03:50:36;100483.00;;;23.20
19282;BMP180;9774;52.034;5.342;2023-07-29T03:53:04;100484.00;;;23.20
19282;BMP180;9774;52.034;5.342;2023-07-29T03:55:31;100482.00;;;23.20
19282;BMP180;9774;52.034;5.342;2023-07-29T03:58:00;100489.00;;;23.20
19282;BMP180;9774;52.034;5.342;2023-07-29T04:00:28;100484.00;;;23.20
19282;BMP180;9774;52.034;5.342;2023-07-29T04:02:55;100481.00;;;23.20
19282;BMP180;9774;52.034;5.342;2023-07-29T04:05:22;100487.00;;;23.20
19282;BMP180;9774;52.034;5.342;2023-07-29T04:07:50;100491.00;;;23.10
19282;BMP180;9774;52.034;5.342;2023-07-29T04:10:17;100489.00;;;23.10
19282;BMP180;9774;52.034;5.342;2023-07-29T04:12:44;100485.00;;;23.10
19282;BMP180;9774;52.034;5.342;2023-07-29T04:15:13;100475.00;;;23.10
19282;BMP180;9774;52.034;5.342;2023-07-29T04:17:40;100465.00;;;23.10
19282;BMP180;9774;52.034;5.342;2023-07-29T04:20:08;100469.00;;;23.10
19282;BMP180;9774;52.034;5.342;2023-07-29T04:22:36;100462.00;;;23.10
19282;BMP180;9774;52.034;5.342;2023-07-29T04:25:04;100470.00;;;23.10
19282;BMP180;9774;52.034;5.342;2023-07-29T04:27:31;100467.00;;;23.10
19282;BMP180;9774;52.034;5.342;2023-07-29T04:29:58;100475.00;;;23.10
19282;BMP180;9774;52.034;5.342;2023-07-29T04:32:27;100472.00;;;23.10
19282;BMP180;9774;52.034;5.342;2023-07-29T04:34:54;100476.00;;;23.10
19282;BMP180;9774;52.034;5.342;2023-07-29T04:37:22;100485.00;;;23.10
19282;BMP180;9774;52.034;5.342;2023-07-29T04:39:49;100477.00;;;23.10
19282;BMP180;9774;52.034;5.342;2023-07-29T04:42:17;100482.00;;;23.10
19282;BMP180;9774;52.034;5.342;2023-07-29T04:44:44;100482.00;;;23.10
19282;BMP180;9774;52.034;5.342;2023-07-29T04:47:11;100484.00;;;23.10
19282;BMP180;9774;52.034;5.342;2023-07-29T04:49:40;100488.00;;;23.00
19282;BMP180;9774;52.034;5.342;2023-07-29T04:52:07;100485.00;;;23.00
19282;BMP180;9774;52.034;5.342;2023-07-29T04:54:34;100490.00;;;23.00
19282;BMP180;9774;52.034;5.342;2023-07-29T04:57:02;100495.00;;;23.00
19282;BMP180;9774;52.034;5.342;2023-07-29T04:59:29;100494.00;;;23.00
19282;BMP180;9774;52.034;5.342;2023-07-29T05:01:56;100493.00;;;23.00
19282;BMP180;9774;52.034;5.342;2023-07-29T05:04:24;100490.00;;;23.00
19282;BMP180;9774;52.034;5.342;2023-07-29T05:06:53;100500.00;;;23.00
19282;BMP180;9774;52.034;5.342;2023-07-29T05:09:20;100509.00;;;23.10
19282;BMP180;9774;52.034;5.342;2023-07-29T05:11:47;100505.00;;;23.10
19282;BMP180;9774;52.034;5.342;2023-07-29T05:14:17;100503.00;;;23.10
19282;BMP180;9774;52.034;5.342;2023-07-29T05:16:44;100499.00;;;23.10
19282;BMP180;9774;52.034;5.342;2023-07-29T05:19:12;100495.00;;;23.10
19282;BMP180;9774;52.034;5.342;2023-07-29T05:21:39;100493.00;;;23.10
19282;BMP180;9774;52.034;5.342;2023-07-29T05:24:08;100496.00;;;23.10
19282;BMP180;9774;52.034;5.342;2023-07-29T05:26:35;100502.00;;;23.10
19282;BMP180;9774;52.034;5.342;2023-07-29T05:29:03;100498.00;;;23.10
19282;BMP180;9774;52.034;5.342;2023-07-29T05:31:31;100498.00;;;23.10
19282;BMP180;9774;52.034;5.342;2023-07-29T05:33:58;100509.00;;;23.10
19282;BMP180;9774;52.034;5.342;2023-07-29T05:36:26;100510.00;;;23.10
19282;BMP180;9774;52.034;5.342;2023-07-29T05:38:53;100510.00;;;23.10
19282;BMP180;9774;52.034;5.342;2023-07-29T05:41:22;100516.00;;;23.20
19282;BMP180;9774;52.034;5.342;2023-07-29T05:43:49;100507.00;;;23.20
19282;BMP180;9774;52.034;5.342;2023-07-29T05:46:16;100506.00;;;23.20
19282;BMP180;9774;52.034;5.342;2023-07-29T05:48:43;100512.00;;;23.20
19282;BMP180;9774;52.034;5.342;2023-07-29T05:51:10;100516.00;;;23.20
19282;BMP180;9774;52.034;5.342;2023-07-29T05:53:38;100508.00;;;23.30
19282;BMP180;9774;52.034;5.342;2023-07-29T05:56:05;100503.00;;;23.30
19282;BMP180;9774;52.034;5.342;2023-07-29T05:58:34;100507.00;;;23.30
19282;BMP180;9774;52.034;5.342;2023-07-29T06:01:01;100514.00;;;23.30
19282;BMP180;9774;52.034;5.342;2023-07-29T06:03:28;100512.00;;;23.40
19282;BMP180;9774;52.034;5.342;2023-07-29T06:05:55;100504.00;;;23.40
19282;BMP180;9774;52.034;5.342;2023-07-29T06:08:23;100504.00;;;23.50
19282;BMP180;9774;52.034;5.342;2023-07-29T06:10:50;100505.00;;;23.50
19282;BMP180;9774;52.034;5.342;2023-07-29T06:13:17;100496.00;;;23.50
19282;BMP180;9774;52.034;5.342;2023-07-29T06:15:46;100498.00;;;23.60
19282;BMP180;9774;52.034;5.342;2023-07-29T06:18:13;100509.00;;;23.60
19282;BMP180;9774;52.034;5.342;2023-07-29T06:20:40;100518.00;;;23.70
19282;BMP180;9774;52.034;5.342;2023-07-29T06:23:08;100518.00;;;23.70
19282;BMP180;9774;52.034;5.342;2023-07-29T06:25:36;100512.00;;;23.80
19282;BMP180;9774;52.034;5.342;2023-07-29T06:28:03;100520.00;;;23.80
19282;BMP180;9774;52.034;5.342;2023-07-29T06:30:30;100518.00;;;23.90
19282;BMP180;9774;52.034;5.342;2023-07-29T06:32:59;100509.00;;;23.90
19282;BMP180;9774;52.034;5.342;2023-07-29T06:35:26;100516.00;;;24.00
19282;BMP180;9774;52.034;5.342;2023-07-29T06:37:53;100517.00;;;24.00
19282;BMP180;9774;52.034;5.342;2023-07-29T06:40:21;100518.00;;;24.00
19282;BMP180;9774;52.034;5.342;2023-07-29T06:42:48;100518.00;;;24.10
19282;BMP180;9774;52.034;5.342;2023-07-29T06:45:15;100515.00;;;24.10
19282;BMP180;9774;52.034;5.342;2023-07-29T06:47:43;100519.00;;;24.20
19282;BMP180;9774;52.034;5.342;2023-07-29T06:50:11;100520.00;;;24.20
19282;BMP180;9774;52.034;5.342;2023-07-29T06:52:38;100523.00;;;24.20
19282;BMP180;9774;52.034;5.342;2023-07-29T06:55:07;100521.00;;;24.30
19282;BMP180;9774;52.034;5.342;2023-07-29T06:57:34;100520.00;;;24.30
19282;BMP180;9774;52.034;5.342;2023-07-29T07:00:02;100522.00;;;24.40
19282;BMP180;9774;52.034;5.342;2023-07-29T07:02:30;100522.00;;;24.40
19282;BMP180;9774;52.034;5.342;2023-07-29T07:04:57;100532.00;;;24.40
19282;BMP180;9774;52.034;5.342;2023-07-29T07:07:25;100530.00;;;24.40
19282;BMP180;9774;52.034;5.342;2023-07-29T07:09:53;100534.00;;;24.40
19282;BMP180;9774;52.034;5.342;2023-07-29T07:12:20;100528.00;;;24.50
19282;BMP180;9774;52.034;5.342;2023-07-29T07:14:47;100530.00;;;24.50
19282;BMP180;9774;52.034;5.342;2023-07-29T07:17:15;100532.00;;;24.50
19282;BMP180;9774;52.034;5.342;2023-07-29T07:19:42;100533.00;;;24.50
19282;BMP180;9774;52.034;5.342;2023-07-29T07:22:09;100533.00;;;24.50
19282;BMP180;9774;52.034;5.342;2023-07-29T07:24:38;100538.00;;;24.50
19282;BMP180;9774;52.034;5.342;2023-07-29T07:27:06;100542.00;;;24.50
19282;BMP180;9774;52.034;5.342;2023-07-29T07:29:33;100545.00;;;24.60
19282;BMP180;9774;52.034;5.342;2023-07-29T07:32:00;100540.00;;;24.60
19282;BMP180;9774;52.034;5.342;2023-07-29T07:34:28;100545.00;;;24.60
19282;BMP180;9774;52.034;5.342;2023-07-29T07:36:55;100545.00;;;24.60
19282;BMP180;9774;52.034;5.342;2023-07-29T07:39:22;100543.00;;;24.60
19282;BMP180;9774;52.034;5.342;2023-07-29T07:41:51;100542.00;;;24.60
19282;BMP180;9774;52.034;5.342;2023-07-29T07:44:18;100533.00;;;24.70
19282;BMP180;9774;52.034;5.342;2023-07-29T07:46:46;100544.00;;;24.70
19282;BMP180;9774;52.034;5.342;2023-07-29T07:49:13;100545.00;;;24.70
19282;BMP180;9774;52.034;5.342;2023-07-29T07:51:40;100542.00;;;24.70
19282;BMP180;9774;52.034;5.342;2023-07-29T07:54:10;100532.00;;;24.70
19282;BMP180;9774;52.034;5.342;2023-07-29T07:56:37;100550.00;;;24.70
19282;BMP180;9774;52.034;5.342;2023-07-29T07:59:06;100548.00;;;24.80
19282;BMP180;9774;52.034;5.342;2023-07-29T08:01:35;100548.00;;;24.80
19282;BMP180;9774;52.034;5.342;2023-07-29T08:04:02;100558.00;;;24.80
19282;BMP180;9774;52.034;5.342;2023-07-29T08:06:30;100547.00;;;24.90
19282;BMP180;9774;52.034;5.342;2023-07-29T08:08:58;100552.00;;;24.90
19282;BMP180;9774;52.034;5.342;2023-07-29T08:11:25;100546.00;;;25.00
19282;BMP180;9774;52.034;5.342;2023-07-29T08:13:53;100545.00;;;25.10
19282;BMP180;9774;52.034;5.342;2023-07-29T08:16:21;100548.00;;;25.20
19282;BMP180;9774;52.034;5.342;2023-07-29T08:18:48;100554.00;;;25.20
19282;BMP180;9774;52.034;5.342;2023-07-29T08:21:16;100552.00;;;25.30
19282;BMP180;9774;52.034;5.342;2023-07-29T08:23:43;100553.00;;;25.30
19282;BMP180;9774;52.034;5.342;2023-07-29T08:26:10;100555.00;;;25.30
19282;BMP180;9774;52.034;5.342;2023-07-29T08:28:39;100544.00;;;25.30
19282;BMP180;9774;52.034;5.342;2023-07-29T08:31:07;100562.00;;;25.40
19282;BMP180;9774;52.034;5.342;2023-07-29T08:33:36;100558.00;;;25.40
19282;BMP180;9774;52.034;5.342;2023-07-29T08:36:03;100553.00;;;25.50
19282;BMP180;9774;52.034;5.342;2023-07-29T08:38:31;100562.00;;;25.50
19282;BMP180;9774;52.034;5.342;2023-07-29T08:41:05;100551.00;;;25.50
19282;BMP180;9774;52.034;5.342;2023-07-29T08:43:33;100557.00;;;25.60
19282;BMP180;9774;52.034;5.342;2023-07-29T08:46:01;100559.00;;;25.60
19282;BMP180;9774;52.034;5.342;2023-07-29T08:48:33;100556.00;;;25.60
19282;BMP180;9774;52.034;5.342;2023-07-29T08:51:04;100554.00;;;25.60
19282;BMP180;9774;52.034;5.342;2023-07-29T08:53:32;100559.00;;;25.60
19282;BMP180;9774;52.034;5.342;2023-07-29T08:55:59;100555.00;;;25.70
19282;BMP180;9774;52.034;5.342;2023-07-29T08:58:28;100554.00;;;25.80
19282;BMP180;9774;52.034;5.342;2023-07-29T09:00:55;100555.00;;;25.90
19282;BMP180;9774;52.034;5.342;2023-07-29T09:03:22;100555.00;;;26.00
19282;BMP180;9774;52.034;5.342;2023-07-29T09:05:51;100562.00;;;26.10
19282;BMP180;9774;52.034;5.342;2023-07-29T09:08:21;100557.00;;;26.10
19282;BMP180;9774;52.034;5.342;2023-07-29T09:10:49;100563.00;;;26.30
19282;BMP180;9774;52.034;5.342;2023-07-29T09:13:16;100555.00;;;26.30
19282;BMP180;9774;52.034;5.342;2023-07-29T09:15:43;100560.00;;;26.40
19282;BMP180;9774;52.034;5.342;2023-07-29T09:18:12;100556.00;;;26.50
19282;BMP180;9774;52.034;5.342;2023-07-29T09:20:39;100565.00;;;26.60
19282;BMP180;9774;52.034;5.342;2023-07-29T09:23:09;100565.00;;;26.60
19282;BMP180;9774;52.034;5.342;2023-07-29T09:25:38;100555.00;;;26.70
19282;BMP180;9774;52.034;5.342;2023-07-29T09:28:09;100560.00;;;26.70
19282;BMP180;9774;52.034;5.342;2023-07-29T09:30:38;100559.00;;;26.80
19282;BMP180;9774;52.034;5.342;2023-07-29T09:33:05;100555.00;;;26.90
19282;BMP180;9774;52.034;5.342;2023-07-29T09:35:34;100561.00;;;26.90
19282;BMP180;9774;52.034;5.342;2023-07-29T09:38:02;100562.00;;;27.00
19282;BMP180;9774;52.034;5.342;2023-07-29T09:40:36;100568.00;;;27.00
19282;BMP180;9774;52.034;5.342;2023-07-29T09:43:05;100549.00;;;27.00
19282;BMP180;9774;52.034;5.342;2023-07-29T09:45:34;100555.00;;;27.00
19282;BMP180;9774;52.034;5.342;2023-07-29T09:48:03;100555.00;;;27.10
19282;BMP180;9774;52.034;5.342;2023-07-29T09:50:31;100549.00;;;27.10
19282;BMP180;9774;52.034;5.342;2023-07-29T09:52:58;100551.00;;;27.10
19282;BMP180;9774;52.034;5.342;2023-07-29T09:55:26;100546.00;;;27.10
19282;BMP180;9774;52.034;5.342;2023-07-29T09:57:57;100554.00;;;27.20
19282;BMP180;9774;52.034;5.342;2023-07-29T10:00:27;100550.00;;;27.30
19282;BMP180;9774;52.034;5.342;2023-07-29T10:02:55;100556.00;;;27.30
19282;BMP180;9774;52.034;5.342;2023-07-29T10:05:22;100556.00;;;27.30
19282;BMP180;9774;52.034;5.342;2023-07-29T10:07:50;100566.00;;;27.40
19282;BMP180;9774;52.034;5.342;2023-07-29T10:10:17;100557.00;;;27.40
19282;BMP180;9774;52.034;5.342;2023-07-29T10:12:45;100562.00;;;27.40
19282;BMP180;9774;52.034;5.342;2023-07-29T10:15:14;100562.00;;;27.40
19282;BMP180;9774;52.034;5.342;2023-07-29T10:17:41;100563.00;;;27.50
19282;BMP180;9774;52.034;5.342;2023-07-29T10:20:10;100569.00;;;27.40
19282;BMP180;9774;52.034;5.342;2023-07-29T10:22:40;100566.00;;;27.40
19282;BMP180;9774;52.034;5.342;2023-07-29T10:25:10;100563.00;;;27.40
19282;BMP180;9774;52.034;5.342;2023-07-29T10:27:44;100567.00;;;27.40
19282;BMP180;9774;52.034;5.342;2023-07-29T10:30:15;100567.00;;;27.40
19282;BMP180;9774;52.034;5.342;2023-07-29T10:32:43;100573.00;;;27.40
19282;BMP180;9774;52.034;5.342;2023-07-29T10:35:11;100573.00;;;27.50
19282;BMP180;9774;52.034;5.342;2023-07-29T10:37:39;100578.00;;;27.40
19282;BMP180;9774;52.034;5.342;2023-07-29T10:40:09;100587.00;;;27.40
19282;BMP180;9774;52.034;5.342;2023-07-29T10:42:37;100574.00;;;27.30
19282;BMP180;9774;52.034;5.342;2023-07-29T10:45:22;100572.00;;;27.20
19282;BMP180;9774;52.034;5.342;2023-07-29T10:47:49;100581.00;;;27.20
19282;BMP180;9774;52.034;5.342;2023-07-29T10:50:21;100579.00;;;27.10
19282;BMP180;9774;52.034;5.342;2023-07-29T10:52:52;100583.00;;;27.00
19282;BMP180;9774;52.034;5.342;2023-07-29T10:55:30;100583.00;;;26.90
19282;BMP180;9774;52.034;5.342;2023-07-29T10:58:06;100587.00;;;26.90
19282;BMP180;9774;52.034;5.342;2023-07-29T11:00:35;100586.00;;;26.90
19282;BMP180;9774;52.034;5.342;2023-07-29T11:03:05;100577.00;;;26.90
19282;BMP180;9774;52.034;5.342;2023-07-29T11:05:43;100586.00;;;26.80
19282;BMP180;9774;52.034;5.342;2023-07-29T11:08:22;100592.00;;;26.80
19282;BMP180;9774;52.034;5.342;2023-07-29T11:11:01;100588.00;;;26.70
19282;BMP180;9774;52.034;5.342;2023-07-29T11:13:28;100598.00;;;26.80
19282;BMP180;9774;52.034;5.342;2023-07-29T11:15:58;100602.00;;;26.70
19282;BMP180;9774;52.034;5.342;2023-07-29T11:18:28;100591.00;;;26.70
19282;BMP180;9774;52.034;5.342;2023-07-29T11:20:57;100593.00;;;26.60
19282;BMP180;9774;52.034;5.342;2023-07-29T11:23:32;100598.00;;;26.50
19282;BMP180;9774;52.034;5.342;2023-07-29T11:26:00;100594.00;;;26.50
19282;BMP180;9774;52.034;5.342;2023-07-29T11:28:28;100592.00;;;26.40
19282;BMP180;9774;52.034;5.342;2023-07-29T11:30:57;100596.00;;;26.40
19282;BMP180;9774;52.034;5.342;2023-07-29T11:33:25;100593.00;;;26.30
19282;BMP180;9774;52.034;5.342;2023-07-29T11:35:54;100594.00;;;26.30
19282;BMP180;9774;52.034;5.342;2023-07-29T11:38:22;100594.00;;;26.20
19282;BMP180;9774;52.034;5.342;2023-07-29T11:40:56;100593.00;;;26.00
19282;BMP180;9774;52.034;5.342;2023-07-29T11:43:24;100595.00;;;26.00
19282;BMP180;9774;52.034;5.342;2023-07-29T11:45:51;100581.00;;;26.00
19282;BMP180;9774;52.034;5.342;2023-07-29T11:48:27;100579.00;;;25.80
19282;BMP180;9774;52.034;5.342;2023-07-29T11:50:54;100580.00;;;25.90
19282;BMP180;9774;52.034;5.342;2023-07-29T11:53:22;100579.00;;;25.90
19282;BMP180;9774;52.034;5.342;2023-07-29T11:55:51;100580.00;;;25.90
19282;BMP180;9774;52.034;5.342;2023-07-29T11:58:19;100589.00;;;25.90
19282;BMP180;9774;52.034;5.342;2023-07-29T12:00:47;100588.00;;;25.80
19282;BMP180;9774;52.034;5.342;2023-07-29T12:03:16;100594.00;;;25.80
19282;BMP180;9774;52.034;5.342;2023-07-29T12:05:45;100596.00;;;25.80
19282;BMP180;9774;52.034;5.342;2023-07-29T12:08:12;100592.00;;;25.80
19282;BMP180;9774;52.034;5.342;2023-07-29T12:10:40;100598.00;;;25.90
19282;BMP180;9774;52.034;5.342;2023-07-29T12:13:08;100594.00;;;25.90
19282;BMP180;9774;52.034;5.342;2023-07-29T12:15:38;100586.00;;;26.00
19282;BMP180;9774;52.034;5.342;2023-07-29T12:18:06;100586.00;;;26.10
19282;BMP180;9774;52.034;5.342;2023-07-29T12:20:34;100577.00;;;26.10
19282;BMP180;9774;52.034;5.342;2023-07-29T12:23:03;100583.00;;;26.20
19282;BMP180;9774;52.034;5.342;2023-07-29T12:25:31;100582.00;;;26.30
19282;BMP180;9774;52.034;5.342;2023-07-29T12:28:03;100581.00;;;26.30
19282;BMP180;9774;52.034;5.342;2023-07-29T12:30:30;100588.00;;;26.50
19282;BMP180;9774;52.034;5.342;2023-07-29T12:32:57;100580.00;;;26.60
19282;BMP180;9774;52.034;5.342;2023-07-29T12:35:33;100581.00;;;26.60
19282;BMP180;9774;52.034;5.342;2023-07-29T12:38:00;100589.00;;;26.70
19282;BMP180;9774;52.034;5.342;2023-07-29T12:40:29;100589.00;;;26.70
19282;BMP180;9774;52.034;5.342;2023-07-29T12:42:57;100580.00;;;26.70
19282;BMP180;9774;52.034;5.342;2023-07-29T12:45:24;100581.00;;;26.80
19282;BMP180;9774;52.034;5.342;2023-07-29T12:47:53;100590.00;;;26.80
19282;BMP180;9774;52.034;5.342;2023-07-29T12:50:19;100589.00;;;26.80
19282;BMP180;9774;52.034;5.342;2023-07-29T12:52:47;100579.00;;;26.90
19282;BMP180;9774;52.034;5.342;2023-07-29T12:55:14;100578.00;;;26.90
19282;BMP180;9774;52.034;5.342;2023-07-29T12:57:43;100570.00;;;26.90
19282;BMP180;9774;52.034;5.342;2023-07-29T13:00:11;100578.00;;;26.90
19282;BMP180;9774;52.034;5.342;2023-07-29T13:02:39;100570.00;;;26.90
19282;BMP180;9774;52.034;5.342;2023-07-29T13:05:08;100575.00;;;26.90
19282;BMP180;9774;52.034;5.342;2023-07-29T13:07:36;100560.00;;;27.00
19282;BMP180;9774;52.034;5.342;2023-07-29T13:10:04;100572.00;;;27.00
19282;BMP180;9774;52.034;5.342;2023-07-29T13:12:31;100573.00;;;27.00
19282;BMP180;9774;52.034;5.342;2023-07-29T13:15:00;100565.00;;;27.10
19282;BMP180;9774;52.034;5.342;2023-07-29T13:17:27;100568.00;;;27.10
19282;BMP180;9774;52.034;5.342;2023-07-29T13:19:55;100568.00;;;27.20
19282;BMP180;9774;52.034;5.342;2023-07-29T13:22:22;100565.00;;;27.20
19282;BMP180;9774;52.034;5.342;2023-07-29T13:24:49;100563.00;;;27.20
19282;BMP180;9774;52.034;5.342;2023-07-29T13:27:16;100572.00;;;27.20
19282;BMP180;9774;52.034;5.342;2023-07-29T13:29:44;100567.00;;;27.20
19282;BMP180;9774;52.034;5.342;2023-07-29T13:32:13;100576.00;;;27.20
19282;BMP180;9774;52.034;5.342;2023-07-29T13:34:40;100571.00;;;27.30
19282;BMP180;9774;52.034;5.342;2023-07-29T13:37:07;100572.00;;;27.40
19282;BMP180;9774;52.034;5.342;2023-07-29T13:39:35;100566.00;;;27.50
19282;BMP180;9774;52.034;5.342;2023-07-29T13:42:02;100574.00;;;27.50
19282;BMP180;9774;52.034;5.342;2023-07-29T13:44:29;100574.00;;;27.50
19282;BMP180;9774;52.034;5.342;2023-07-29T13:46:56;100575.00;;;27.60
19282;BMP180;9774;52.034;5.342;2023-07-29T13:49:25;100572.00;;;27.60
19282;BMP180;9774;52.034;5.342;2023-07-29T13:51:52;100581.00;;;27.70
19282;BMP180;9774;52.034;5.342;2023-07-29T13:54:20;100574.00;;;27.70
19282;BMP180;9774;52.034;5.342;2023-07-29T13:56:47;100576.00;;;27.80
19282;BMP180;9774;52.034;5.342;2023-07-29T13:59:14;100578.00;;;27.80
19282;BMP180;9774;52.034;5.342;2023-07-29T14:01:42;100573.00;;;27.90
19282;BMP180;9774;52.034;5.342;2023-07-29T14:04:09;100568.00;;;27.90
19282;BMP180;9774;52.034;5.342;2023-07-29T14:06:38;100582.00;;;28.00
19282;BMP180;9774;52.034;5.342;2023-07-29T14:09:05;100577.00;;;28.00
19282;BMP180;9774;52.034;5.342;2023-07-29T14:11:32;100564.00;;;28.00
19282;BMP180;9774;52.034;5.342;2023-07-29T14:13:59;100567.00;;;28.00